createdAt,value
2019-04-29T00:00:18.183Z,52.10
2019-04-29T00:01:45.394Z,52.10
2019-04-29T00:03:10.909Z,52.10
2019-04-29T00:04:36.533Z,52.10
2019-04-29T00:06:02.097Z,52.10
2019-04-29T00:07:27.687Z,52.20
2019-04-29T00:08:53.233Z,51.70
2019-04-29T00:10:20.586Z,51.70
2019-04-29T00:11:46.388Z,51.50
2019-04-29T00:13:12.371Z,51.50
2019-04-29T00:14:38.621Z,51.60
2019-04-29T00:16:19.682Z,51.70
2019-04-29T00:17:56.975Z,51.80
2019-04-29T00:19:41.489Z,51.70
2019-04-29T00:21:07.410Z,51.70
2019-04-29T00:22:33.100Z,51.50
2019-04-29T00:24:04.129Z,51.70
2019-04-29T00:25:25.751Z,51.60
2019-04-29T00:26:51.233Z,51.60
2019-04-29T00:28:16.987Z,51.70
2019-04-29T00:29:42.647Z,51.80
2019-04-29T00:31:08.119Z,51.80
2019-04-29T00:32:33.595Z,52.00
2019-04-29T00:33:59.270Z,52.10
2019-04-29T00:35:24.948Z,52.20
2019-04-29T00:37:12.354Z,52.20
2019-04-29T00:38:52.344Z,52.50
2019-04-29T00:40:35.701Z,52.60
2019-04-29T00:42:20.927Z,52.50
2019-04-29T00:44:05.216Z,52.80
2019-04-29T00:45:30.784Z,53.00
2019-04-29T00:46:56.386Z,53.00
2019-04-29T00:48:21.952Z,53.00
2019-04-29T00:49:47.436Z,53.00
2019-04-29T00:51:13.095Z,53.10
2019-04-29T00:52:38.685Z,53.10
2019-04-29T00:54:13.264Z,53.10
2019-04-29T00:55:38.735Z,53.00
2019-04-29T00:57:04.424Z,53.00
2019-04-29T00:58:29.915Z,53.10
2019-04-29T00:59:55.400Z,53.20
2019-04-29T01:01:24.601Z,53.20
2019-04-29T01:02:50.076Z,53.20
2019-04-29T01:04:15.717Z,53.10
2019-04-29T01:05:41.267Z,53.10
2019-04-29T01:07:06.827Z,53.20
2019-04-29T01:08:32.420Z,54.10
2019-04-29T01:09:57.964Z,53.60
2019-04-29T01:11:23.548Z,53.70
2019-04-29T01:12:49.108Z,53.90
2019-04-29T01:14:14.719Z,54.10
2019-04-29T01:15:40.182Z,54.30
2019-04-29T01:17:05.891Z,54.30
2019-04-29T01:18:31.429Z,54.40
2019-04-29T01:19:56.895Z,54.30
2019-04-29T01:21:22.517Z,54.40
2019-04-29T01:22:48.019Z,54.40
2019-04-29T01:24:13.468Z,54.40
2019-04-29T01:25:39.037Z,54.20
2019-04-29T01:27:19.011Z,54.20
2019-04-29T01:28:49.574Z,54.20
2019-04-29T01:31:21.245Z,54.30
2019-04-29T01:32:46.847Z,54.30
2019-04-29T01:34:23.364Z,54.50
2019-04-29T01:35:50.412Z,54.60
2019-04-29T01:37:15.868Z,54.60
2019-04-29T01:38:41.320Z,54.80
2019-04-29T01:40:35.203Z,55.00
2019-04-29T01:42:12.655Z,55.00
2019-04-29T01:43:55.599Z,55.10
2019-04-29T01:45:21.189Z,55.20
2019-04-29T01:46:46.675Z,55.30
2019-04-29T01:48:12.120Z,55.30
2019-04-29T01:49:37.607Z,55.30
2019-04-29T01:51:03.031Z,55.50
2019-04-29T01:52:28.552Z,55.40
2019-04-29T01:53:54.104Z,55.30
2019-04-29T01:55:19.611Z,55.00
2019-04-29T01:56:45.171Z,54.90
2019-04-29T01:58:10.655Z,55.00
2019-04-29T01:59:36.176Z,55.10
2019-04-29T02:01:01.701Z,55.10
2019-04-29T02:02:27.178Z,55.10
2019-04-29T02:03:52.619Z,55.20
2019-04-29T02:05:18.099Z,55.30
2019-04-29T02:06:43.530Z,55.10
2019-04-29T02:08:08.999Z,54.80
2019-04-29T02:09:42.041Z,54.90
2019-04-29T02:11:07.568Z,54.90
2019-04-29T02:12:33.059Z,54.50
2019-04-29T02:13:58.531Z,54.60
2019-04-29T02:15:24.035Z,54.60
2019-04-29T02:16:49.555Z,54.70
2019-04-29T02:18:15.101Z,54.70
2019-04-29T02:19:40.582Z,54.40
2019-04-29T02:21:06.238Z,54.30
2019-04-29T02:22:39.844Z,54.50
2019-04-29T02:24:24.255Z,54.60
2019-04-29T02:25:50.014Z,54.90
2019-04-29T02:27:15.418Z,55.00
2019-04-29T02:28:40.960Z,55.10
2019-04-29T02:30:07.356Z,55.60
2019-04-29T02:31:38.975Z,55.80
2019-04-29T02:33:04.412Z,56.30
2019-04-29T02:34:29.838Z,56.60
2019-04-29T02:35:55.400Z,56.70
2019-04-29T02:37:27.345Z,56.90
2019-04-29T02:39:02.235Z,57.20
2019-04-29T02:40:34.989Z,57.40
2019-04-29T02:42:18.135Z,57.50
2019-04-29T02:43:45.422Z,57.50
2019-04-29T02:45:14.427Z,57.70
2019-04-29T02:46:39.917Z,57.70
2019-04-29T02:48:06.276Z,58.00
2019-04-29T02:49:31.721Z,58.00
2019-04-29T02:50:57.236Z,58.00
2019-04-29T02:52:22.809Z,58.00
2019-04-29T02:53:48.397Z,58.20
2019-04-29T02:55:16.931Z,58.30
2019-04-29T02:56:43.993Z,59.10
2019-04-29T02:58:23.983Z,60.00
2019-04-29T02:59:51.480Z,61.10
2019-04-29T03:01:35.994Z,62.20
2019-04-29T03:03:08.817Z,63.80
2019-04-29T03:04:37.953Z,64.30
2019-04-29T03:06:03.664Z,64.90
2019-04-29T03:07:31.583Z,64.40
2019-04-29T03:08:57.319Z,64.00
2019-04-29T03:10:23.014Z,64.00
2019-04-29T03:11:48.809Z,64.20
2019-04-29T03:13:15.055Z,64.70
2019-04-29T03:14:40.773Z,65.00
2019-04-29T03:16:06.465Z,65.30
2019-04-29T03:17:32.052Z,64.90
2019-04-29T03:19:01.735Z,64.50
2019-04-29T03:20:55.363Z,64.60
2019-04-29T03:22:21.083Z,64.50
2019-04-29T03:23:46.471Z,64.40
2019-04-29T03:25:12.256Z,64.70
2019-04-29T03:26:37.691Z,64.70
2019-04-29T03:28:03.296Z,65.00
2019-04-29T03:29:28.793Z,64.80
2019-04-29T03:30:54.214Z,64.80
2019-04-29T03:32:19.767Z,64.80
2019-04-29T03:33:45.236Z,64.70
2019-04-29T03:35:10.940Z,64.30
2019-04-29T03:36:36.421Z,64.00
2019-04-29T03:38:02.056Z,64.30
2019-04-29T03:39:27.600Z,64.50
2019-04-29T03:41:05.141Z,64.70
2019-04-29T03:42:31.856Z,64.40
2019-04-29T03:43:57.523Z,64.00
2019-04-29T03:45:22.975Z,64.00
2019-04-29T03:46:48.480Z,64.00
2019-04-29T03:48:14.076Z,64.20
2019-04-29T03:49:39.665Z,64.30
2019-04-29T03:51:05.151Z,64.50
2019-04-29T03:52:30.645Z,64.40
2019-04-29T03:53:56.175Z,64.40
2019-04-29T03:55:38.341Z,64.20
2019-04-29T03:56:48.840Z,63.70
2019-04-29T03:58:14.353Z,63.60
2019-04-29T03:59:39.815Z,63.30
2019-04-29T04:01:16.452Z,63.10
2019-04-29T04:02:51.439Z,63.10
2019-04-29T04:04:41.595Z,62.90
2019-04-29T04:06:28.917Z,62.90
2019-04-29T04:07:58.888Z,63.10
2019-04-29T04:09:27.164Z,63.60
2019-04-29T04:10:52.591Z,64.10
2019-04-29T04:12:18.089Z,64.60
2019-04-29T04:13:43.856Z,64.60
2019-04-29T04:15:09.611Z,65.00
2019-04-29T04:16:52.485Z,64.80
2019-04-29T04:18:25.415Z,64.90
2019-04-29T04:19:51.000Z,65.10
2019-04-29T04:21:16.471Z,65.30
2019-04-29T04:22:48.851Z,65.20
2019-04-29T04:24:14.475Z,65.10
2019-04-29T04:25:40.028Z,65.40
2019-04-29T04:27:05.548Z,66.10
2019-04-29T04:28:31.264Z,65.30
2019-04-29T04:29:56.705Z,65.40
2019-04-29T04:31:22.176Z,65.30
2019-04-29T04:32:47.672Z,65.60
2019-04-29T04:34:13.128Z,65.70
2019-04-29T04:35:38.642Z,65.60
2019-04-29T04:37:04.244Z,65.60
2019-04-29T04:38:29.686Z,65.50
2019-04-29T04:39:55.795Z,65.50
2019-04-29T04:41:21.245Z,66.00
2019-04-29T04:42:46.727Z,65.50
2019-04-29T04:44:12.338Z,65.50
2019-04-29T04:45:38.058Z,65.60
2019-04-29T04:47:03.577Z,65.50
2019-04-29T04:48:29.012Z,64.90
2019-04-29T04:49:54.550Z,64.30
2019-04-29T04:51:19.963Z,63.80
2019-04-29T04:52:45.450Z,63.80
2019-04-29T04:54:10.975Z,64.10
2019-04-29T04:55:38.253Z,63.70
2019-04-29T04:57:03.764Z,64.40
2019-04-29T04:58:29.352Z,64.40
2019-04-29T04:59:55.016Z,64.30
2019-04-29T05:01:20.548Z,64.10
2019-04-29T05:02:46.093Z,63.90
2019-04-29T05:04:11.490Z,63.80
2019-04-29T05:05:37.230Z,63.50
2019-04-29T05:07:02.724Z,63.40
2019-04-29T05:08:28.210Z,63.40
2019-04-29T05:09:53.696Z,63.30
2019-04-29T05:11:19.241Z,63.30
2019-04-29T05:12:44.693Z,63.00
2019-04-29T05:14:10.202Z,62.80
2019-04-29T05:15:35.746Z,62.70
2019-04-29T05:17:01.224Z,62.70
2019-04-29T05:18:26.713Z,62.70
2019-04-29T05:19:52.219Z,62.70
2019-04-29T05:21:17.881Z,62.40
2019-04-29T05:22:59.501Z,62.20
2019-04-29T05:24:25.042Z,62.10
2019-04-29T05:25:50.544Z,61.90
2019-04-29T05:27:16.065Z,61.70
2019-04-29T05:28:41.555Z,61.80
2019-04-29T05:30:07.425Z,61.90
2019-04-29T05:31:32.840Z,62.10
2019-04-29T05:32:58.392Z,62.10
2019-04-29T05:34:25.457Z,61.60
2019-04-29T05:36:28.444Z,61.70
2019-04-29T05:38:27.602Z,61.90
2019-04-29T05:39:53.116Z,61.80
2019-04-29T05:41:19.349Z,61.50
2019-04-29T05:42:48.326Z,61.40
2019-04-29T05:44:29.569Z,61.00
2019-04-29T05:46:25.944Z,60.70
2019-04-29T05:48:01.455Z,61.00
2019-04-29T05:49:31.672Z,60.20
2019-04-29T05:51:22.686Z,59.90
2019-04-29T05:52:52.130Z,60.30
2019-04-29T05:54:18.319Z,60.70
2019-04-29T05:55:43.806Z,60.20
2019-04-29T05:57:09.292Z,59.70
2019-04-29T05:58:37.794Z,59.20
2019-04-29T06:00:01.781Z,59.30
2019-04-29T06:01:28.373Z,59.40
2019-04-29T06:02:53.848Z,59.40
2019-04-29T06:04:19.405Z,59.20
2019-04-29T06:05:45.091Z,58.80
2019-04-29T06:07:10.637Z,58.90
2019-04-29T06:08:39.223Z,59.20
2019-04-29T06:10:03.502Z,59.40
2019-04-29T06:11:31.446Z,58.80
2019-04-29T06:12:56.099Z,59.00
2019-04-29T06:14:22.274Z,58.90
2019-04-29T06:15:47.823Z,59.00
2019-04-29T06:17:13.390Z,58.90
2019-04-29T06:18:40.925Z,59.10
2019-04-29T06:20:06.175Z,59.30
2019-04-29T06:21:31.667Z,59.30
2019-04-29T06:22:57.119Z,59.30
2019-04-29T06:24:22.574Z,59.30
2019-04-29T06:25:48.049Z,59.30
2019-04-29T06:27:13.695Z,59.30
2019-04-29T06:28:39.162Z,59.30
2019-04-29T06:30:05.871Z,59.20
2019-04-29T06:31:31.374Z,59.30
2019-04-29T06:32:56.876Z,59.50
2019-04-29T06:34:22.469Z,59.50
2019-04-29T06:35:49.019Z,59.50
2019-04-29T06:37:15.204Z,59.40
2019-04-29T06:38:40.796Z,59.40
2019-04-29T06:40:06.554Z,59.50
2019-04-29T06:41:32.024Z,59.50
2019-04-29T06:42:57.586Z,59.50
2019-04-29T06:44:23.068Z,59.50
2019-04-29T06:45:48.533Z,59.50
2019-04-29T06:47:16.867Z,59.60
2019-04-29T06:48:41.146Z,59.60
2019-04-29T06:50:07.597Z,59.60
2019-04-29T06:51:33.075Z,59.60
2019-04-29T06:52:58.583Z,59.60
2019-04-29T06:54:24.155Z,59.40
2019-04-29T06:55:49.659Z,59.10
2019-04-29T06:57:15.292Z,59.20
2019-04-29T06:58:40.794Z,58.80
2019-04-29T07:00:07.507Z,58.70
2019-04-29T07:01:37.096Z,58.50
2019-04-29T07:03:00.091Z,59.00
2019-04-29T07:04:25.580Z,58.90
2019-04-29T07:05:51.650Z,58.50
2019-04-29T07:07:17.290Z,58.00
2019-04-29T07:08:42.791Z,58.40
2019-04-29T07:10:08.363Z,58.30
2019-04-29T07:11:36.615Z,58.30
2019-04-29T07:13:00.919Z,58.10
2019-04-29T07:14:28.403Z,58.20
2019-04-29T07:15:53.553Z,58.10
2019-04-29T07:17:19.023Z,58.00
2019-04-29T07:18:48.309Z,58.10
2019-04-29T07:20:12.029Z,57.80
2019-04-29T07:21:37.464Z,57.90
2019-04-29T07:23:03.074Z,58.10
2019-04-29T07:24:28.595Z,57.70
2019-04-29T07:25:54.066Z,57.60
2019-04-29T07:27:19.613Z,58.30
2019-04-29T07:28:48.750Z,57.70
2019-04-29T07:30:12.567Z,57.70
2019-04-29T07:31:38.008Z,57.20
2019-04-29T07:33:05.506Z,57.00
2019-04-29T07:34:33.789Z,56.90
2019-04-29T07:36:10.414Z,57.10
2019-04-29T07:37:25.119Z,57.00
2019-04-29T07:38:51.735Z,57.00
2019-04-29T07:40:19.411Z,56.50
2019-04-29T07:41:45.005Z,56.40
2019-04-29T07:43:10.621Z,56.10
2019-04-29T07:44:48.800Z,56.00
2019-04-29T07:46:24.652Z,56.00
2019-04-29T07:47:56.657Z,56.10
2019-04-29T07:49:18.939Z,57.20
2019-04-29T07:50:44.672Z,56.40
2019-04-29T07:52:14.416Z,55.80
2019-04-29T07:53:44.839Z,55.30
2019-04-29T07:55:04.591Z,55.30
2019-04-29T07:56:30.062Z,54.90
2019-04-29T07:57:55.506Z,54.50
2019-04-29T07:59:21.013Z,55.00
2019-04-29T08:00:48.870Z,54.80
2019-04-29T08:02:13.713Z,54.50
2019-04-29T08:03:39.312Z,54.70
2019-04-29T08:05:05.226Z,54.60
2019-04-29T08:06:31.889Z,53.50
2019-04-29T08:07:57.927Z,53.10
2019-04-29T08:09:23.610Z,54.40
2019-04-29T08:10:55.996Z,52.50
2019-04-29T08:12:17.128Z,50.90
2019-04-29T08:13:44.353Z,51.30
2019-04-29T08:15:10.531Z,51.10
2019-04-29T08:16:36.251Z,51.30
2019-04-29T08:18:06.781Z,50.20
2019-04-29T08:19:31.228Z,48.30
2019-04-29T08:20:56.124Z,49.90
2019-04-29T08:22:23.030Z,50.70
2019-04-29T08:23:48.980Z,51.50
2019-04-29T08:25:14.651Z,50.20
2019-04-29T08:26:47.043Z,48.40
2019-04-29T08:28:07.248Z,49.90
2019-04-29T08:29:35.834Z,50.10
2019-04-29T08:30:59.783Z,49.60
2019-04-29T08:32:25.228Z,49.30
2019-04-29T08:33:50.679Z,48.80
2019-04-29T08:35:16.355Z,48.80
2019-04-29T08:36:41.814Z,48.70
2019-04-29T08:38:07.536Z,48.20
2019-04-29T08:39:33.011Z,49.10
2019-04-29T08:40:58.599Z,49.40
2019-04-29T08:42:27.556Z,48.70
2019-04-29T08:44:30.316Z,48.20
2019-04-29T08:46:00.178Z,49.10
2019-04-29T08:47:31.660Z,50.10
2019-04-29T08:48:55.094Z,50.70
2019-04-29T08:50:20.863Z,49.30
2019-04-29T08:51:46.351Z,50.10
2019-04-29T08:53:11.832Z,49.20
2019-04-29T08:54:37.347Z,49.90
2019-04-29T08:56:05.604Z,50.10
2019-04-29T08:57:31.716Z,50.80
2019-04-29T08:58:57.116Z,52.00
2019-04-29T09:00:23.407Z,49.00
2019-04-29T09:01:48.939Z,49.10
2019-04-29T09:03:14.411Z,49.00
2019-04-29T09:04:52.771Z,48.30
2019-04-29T09:06:07.346Z,49.10
2019-04-29T09:07:32.899Z,48.60
2019-04-29T09:08:59.735Z,49.10
2019-04-29T09:10:25.621Z,50.40
2019-04-29T09:11:51.063Z,49.20
2019-04-29T09:13:16.663Z,47.80
2019-04-29T09:14:42.164Z,47.90
2019-04-29T09:16:07.733Z,46.00
2019-04-29T09:17:33.233Z,45.80
2019-04-29T09:18:58.785Z,45.60
2019-04-29T09:20:24.285Z,45.10
2019-04-29T09:21:52.759Z,45.00
2019-04-29T09:23:21.031Z,46.00
2019-04-29T09:25:04.351Z,45.50
2019-04-29T09:26:38.177Z,45.20
2019-04-29T09:28:07.952Z,44.50
2019-04-29T09:29:37.471Z,45.00
2019-04-29T09:31:03.020Z,44.50
2019-04-29T09:32:28.614Z,45.50
2019-04-29T09:34:06.026Z,45.40
2019-04-29T09:35:21.351Z,45.90
2019-04-29T09:36:48.357Z,44.90
2019-04-29T09:38:13.981Z,43.70
2019-04-29T09:39:43.658Z,44.40
2019-04-29T09:41:30.499Z,44.70
2019-04-29T09:43:15.512Z,44.90
2019-04-29T09:44:58.962Z,44.10
2019-04-29T09:46:29.851Z,43.10
2019-04-29T09:47:55.049Z,45.30
2019-04-29T09:49:20.512Z,43.30
2019-04-29T09:50:46.010Z,43.10
2019-04-29T09:52:11.492Z,43.70
2019-04-29T09:53:37.142Z,44.10
2019-04-29T09:55:04.144Z,44.00
2019-04-29T09:56:29.922Z,43.70
2019-04-29T09:57:55.365Z,43.90
2019-04-29T09:59:32.689Z,43.10
2019-04-29T10:01:23.264Z,42.60
2019-04-29T10:03:10.785Z,42.20
2019-04-29T10:04:56.881Z,42.60
2019-04-29T10:06:25.815Z,43.70
2019-04-29T10:07:51.283Z,43.90
2019-04-29T10:09:16.823Z,42.70
2019-04-29T10:10:44.787Z,41.80
2019-04-29T10:12:10.292Z,44.00
2019-04-29T10:13:35.880Z,44.00
2019-04-29T10:15:01.344Z,43.40
2019-04-29T10:16:44.595Z,42.30
2019-04-29T10:18:25.188Z,45.00
2019-04-29T10:20:08.402Z,45.00
2019-04-29T10:21:33.945Z,43.30
2019-04-29T10:22:59.416Z,43.80
2019-04-29T10:24:24.888Z,43.90
2019-04-29T10:25:51.580Z,43.90
2019-04-29T10:27:17.172Z,43.70
2019-04-29T10:29:01.437Z,43.40
2019-04-29T10:30:31.173Z,44.50
2019-04-29T10:31:55.647Z,42.50
2019-04-29T10:33:23.136Z,42.50
2019-04-29T10:34:48.857Z,43.10
2019-04-29T10:36:16.089Z,42.30
2019-04-29T10:37:41.433Z,42.30
2019-04-29T10:39:42.192Z,42.20
2019-04-29T10:41:12.578Z,42.30
2019-04-29T10:42:46.613Z,41.70
2019-04-29T10:44:42.980Z,41.90
2019-04-29T10:46:36.754Z,41.80
2019-04-29T10:48:17.965Z,41.70
2019-04-29T10:49:54.636Z,42.20
2019-04-29T10:51:23.316Z,42.00
2019-04-29T10:52:47.295Z,41.70
2019-04-29T10:54:14.431Z,41.80
2019-04-29T10:55:40.504Z,41.90
2019-04-29T10:57:06.454Z,41.50
2019-04-29T10:58:35.683Z,42.30
2019-04-29T11:00:10.468Z,42.00
2019-04-29T11:02:35.687Z,42.50
2019-04-29T11:04:02.743Z,42.40
2019-04-29T11:05:36.744Z,41.90
2019-04-29T11:07:13.934Z,41.00
2019-04-29T11:08:52.959Z,41.90
2019-04-29T11:10:29.695Z,42.10
2019-04-29T11:11:55.268Z,41.90
2019-04-29T11:13:20.921Z,41.70
2019-04-29T11:14:46.523Z,41.80
2019-04-29T11:16:12.934Z,41.60
2019-04-29T11:17:39.802Z,42.00
2019-04-29T11:19:06.016Z,41.50
2019-04-29T11:20:31.681Z,41.40
2019-04-29T11:22:02.131Z,42.00
2019-04-29T11:23:46.587Z,42.00
2019-04-29T11:25:35.525Z,41.10
2019-04-29T11:27:12.042Z,41.10
2019-04-29T11:28:38.063Z,40.70
2019-04-29T11:30:05.310Z,40.70
2019-04-29T11:31:30.879Z,40.90
2019-04-29T11:33:14.360Z,40.90
2019-04-29T11:35:01.629Z,41.20
2019-04-29T11:36:27.385Z,41.80
2019-04-29T11:37:55.435Z,41.10
2019-04-29T11:39:20.033Z,41.10
2019-04-29T11:40:46.269Z,40.80
2019-04-29T11:42:11.851Z,41.10
2019-04-29T11:43:37.435Z,41.20
2019-04-29T11:45:05.066Z,41.20
2019-04-29T11:46:30.689Z,41.00
2019-04-29T11:47:56.362Z,41.40
2019-04-29T11:49:26.948Z,41.10
2019-04-29T11:51:14.428Z,40.90
2019-04-29T11:52:39.883Z,40.90
2019-04-29T11:54:08.231Z,40.80
2019-04-29T11:55:32.416Z,41.10
2019-04-29T11:56:58.127Z,40.80
2019-04-29T11:58:39.410Z,40.80
2019-04-29T12:00:23.581Z,40.70
2019-04-29T12:02:13.692Z,40.90
2019-04-29T12:03:40.531Z,41.10
2019-04-29T12:05:44.978Z,41.00
2019-04-29T12:07:07.952Z,40.80
2019-04-29T12:08:33.391Z,41.00
2019-04-29T12:10:02.250Z,41.00
2019-04-29T12:11:28.674Z,41.20
2019-04-29T12:12:53.919Z,41.30
2019-04-29T12:14:33.742Z,41.30
2019-04-29T12:16:24.517Z,41.70
2019-04-29T12:17:57.981Z,41.50
2019-04-29T12:19:29.280Z,42.60
2019-04-29T12:21:25.834Z,42.20
2019-04-29T12:22:51.359Z,42.00
2019-04-29T12:24:17.097Z,42.00
2019-04-29T12:25:42.569Z,42.00
2019-04-29T12:27:08.647Z,42.30
2019-04-29T12:28:38.079Z,42.40
2019-04-29T12:30:01.841Z,42.20
2019-04-29T12:31:49.353Z,42.20
2019-04-29T12:33:18.698Z,42.40
2019-04-29T12:34:51.386Z,42.50
2019-04-29T12:36:16.961Z,42.40
2019-04-29T12:38:19.605Z,42.30
2019-04-29T12:40:16.624Z,42.40
2019-04-29T12:42:07.171Z,42.80
2019-04-29T12:43:48.573Z,42.90
2019-04-29T12:45:29.407Z,43.30
2019-04-29T12:47:26.184Z,43.30
2019-04-29T12:48:45.345Z,43.20
2019-04-29T12:50:10.866Z,43.30
2019-04-29T12:51:42.392Z,43.20
2019-04-29T12:53:08.933Z,43.30
2019-04-29T12:54:34.412Z,43.60
2019-04-29T12:55:59.996Z,43.90
2019-04-29T12:57:28.646Z,44.00
2019-04-29T12:58:55.124Z,45.50
2019-04-29T13:00:25.740Z,44.40
2019-04-29T13:02:19.828Z,44.10
2019-04-29T13:05:58.320Z,44.80
2019-04-29T13:07:33.173Z,45.70
2019-04-29T13:09:16.980Z,45.70
2019-04-29T13:10:42.346Z,45.50
2019-04-29T13:12:18.872Z,45.40
2019-04-29T13:13:34.269Z,47.00
2019-04-29T13:15:12.627Z,48.20
2019-04-29T13:17:08.374Z,48.70
2019-04-29T13:19:10.419Z,48.80
2019-04-29T13:20:26.611Z,49.50
2019-04-29T13:21:52.235Z,49.50
2019-04-29T13:23:30.002Z,49.50
2019-04-29T13:24:45.170Z,49.70
2019-04-29T13:26:10.881Z,50.20
2019-04-29T13:27:38.359Z,50.80
2019-04-29T13:29:04.353Z,51.10
2019-04-29T13:30:29.896Z,51.70
2019-04-29T13:31:55.417Z,51.30
2019-04-29T13:33:21.051Z,51.00
2019-04-29T13:34:47.491Z,51.00
2019-04-29T13:36:13.005Z,51.10
2019-04-29T13:37:38.583Z,51.40
2019-04-29T13:39:05.627Z,51.50
2019-04-29T13:40:37.242Z,51.40
2019-04-29T13:42:02.922Z,51.80
2019-04-29T13:43:27.198Z,51.90
2019-04-29T13:45:06.170Z,51.40
2019-04-29T13:46:29.409Z,51.80
2019-04-29T13:48:07.565Z,52.10
2019-04-29T13:49:43.046Z,51.90
2019-04-29T13:51:13.933Z,51.80
2019-04-29T13:52:39.541Z,51.90
2019-04-29T13:54:06.161Z,51.60
2019-04-29T13:55:47.916Z,51.60
2019-04-29T13:57:07.666Z,52.00
2019-04-29T13:58:27.037Z,52.20
2019-04-29T14:00:12.715Z,52.50
2019-04-29T14:02:01.260Z,52.80
2019-04-29T14:03:35.369Z,52.60
2019-04-29T14:05:02.992Z,53.20
2019-04-29T14:06:28.843Z,53.20
2019-04-29T14:07:54.400Z,53.40
2019-04-29T14:09:19.862Z,53.90
2019-04-29T14:10:46.820Z,54.10
2019-04-29T14:12:47.336Z,54.30
2019-04-29T14:13:43.647Z,54.30
2019-04-29T14:15:07.802Z,53.20
2019-04-29T14:16:33.397Z,53.10
2019-04-29T14:17:58.910Z,53.30
2019-04-29T14:19:40.240Z,53.10
2019-04-29T14:20:53.341Z,53.50
2019-04-29T14:22:23.306Z,53.80
2019-04-29T14:23:49.753Z,53.80
2019-04-29T14:25:15.535Z,54.20
2019-04-29T14:26:41.999Z,54.30
2019-04-29T14:28:08.474Z,54.90
2019-04-29T14:29:33.917Z,55.20
2019-04-29T14:31:01.432Z,55.80
2019-04-29T14:32:36.205Z,55.30
2019-04-29T14:34:08.217Z,55.60
2019-04-29T14:35:51.294Z,56.00
2019-04-29T14:37:23.436Z,56.30
2019-04-29T14:38:44.127Z,56.50
2019-04-29T14:40:10.181Z,56.00
2019-04-29T14:41:43.943Z,55.70
2019-04-29T14:43:31.255Z,56.10
2019-04-29T14:45:06.348Z,56.00
2019-04-29T14:46:40.172Z,56.00
2019-04-29T14:48:20.662Z,55.90
2019-04-29T14:49:49.655Z,55.90
2019-04-29T14:51:19.841Z,56.00
2019-04-29T14:52:49.389Z,56.20
2019-04-29T14:54:12.969Z,56.30
2019-04-29T14:55:38.472Z,56.00
2019-04-29T14:57:04.303Z,55.80
2019-04-29T14:58:41.050Z,55.80
2019-04-29T15:00:15.363Z,55.80
2019-04-29T15:02:00.027Z,55.80
2019-04-29T15:03:27.361Z,55.80
2019-04-29T15:04:52.803Z,55.50
2019-04-29T15:06:19.469Z,55.50
2019-04-29T15:07:45.260Z,55.70
2019-04-29T15:09:17.469Z,55.80
2019-04-29T15:10:40.257Z,55.80
2019-04-29T15:12:23.594Z,55.90
2019-04-29T15:13:50.712Z,55.80
2019-04-29T15:15:37.057Z,55.80
2019-04-29T15:17:15.765Z,55.70
2019-04-29T15:19:03.853Z,55.90
2019-04-29T15:20:52.001Z,56.10
2019-04-29T15:22:18.282Z,56.20
2019-04-29T15:23:43.756Z,56.20
2019-04-29T15:25:09.516Z,56.30
2019-04-29T15:26:35.644Z,56.20
2019-04-29T15:28:01.130Z,56.00
2019-04-29T15:29:26.599Z,56.00
2019-04-29T15:30:52.036Z,55.90
2019-04-29T15:32:17.916Z,56.10
2019-04-29T15:33:44.702Z,56.20
2019-04-29T15:35:10.419Z,56.30
2019-04-29T15:36:36.069Z,56.30
2019-04-29T15:38:01.584Z,56.20
2019-04-29T15:39:27.299Z,56.20
2019-04-29T15:40:53.911Z,56.20
2019-04-29T15:42:19.460Z,56.20
2019-04-29T15:43:47.829Z,55.90
2019-04-29T15:45:12.474Z,55.80
2019-04-29T15:46:46.415Z,55.80
2019-04-29T15:48:05.233Z,55.90
2019-04-29T15:49:30.819Z,55.70
2019-04-29T15:50:56.394Z,55.80
2019-04-29T15:52:25.945Z,56.30
2019-04-29T15:53:49.046Z,55.60
2019-04-29T15:55:14.703Z,55.50
2019-04-29T15:56:40.533Z,55.30
2019-04-29T15:58:06.399Z,55.50
2019-04-29T15:59:47.336Z,55.50
2019-04-29T16:01:13.146Z,55.30
2019-04-29T16:02:26.587Z,55.30
2019-04-29T16:03:54.741Z,55.30
2019-04-29T16:06:04.365Z,55.20
2019-04-29T16:07:46.715Z,55.90
2019-04-29T16:09:18.589Z,55.30
2019-04-29T16:11:02.011Z,55.40
2019-04-29T16:12:32.683Z,55.50
2019-04-29T16:14:08.727Z,56.00
2019-04-29T16:15:25.788Z,55.80
2019-04-29T16:16:51.484Z,55.40
2019-04-29T16:18:17.096Z,55.50
2019-04-29T16:19:42.573Z,55.60
2019-04-29T16:21:08.087Z,55.80
2019-04-29T16:22:38.869Z,56.10
2019-04-29T16:24:00.736Z,56.30
2019-04-29T16:25:26.310Z,56.30
2019-04-29T16:26:53.745Z,56.30
2019-04-29T16:28:24.340Z,56.10
2019-04-29T16:29:51.748Z,56.00
2019-04-29T16:31:14.446Z,55.80
2019-04-29T16:32:41.301Z,55.90
2019-04-29T16:34:06.994Z,56.00
2019-04-29T16:35:34.851Z,56.20
2019-04-29T16:36:59.525Z,56.20
2019-04-29T16:38:25.161Z,56.40
2019-04-29T16:39:52.760Z,56.30
2019-04-29T16:41:35.527Z,56.10
2019-04-29T16:43:06.788Z,56.80
2019-04-29T16:44:36.006Z,56.00
2019-04-29T16:46:37.228Z,56.10
2019-04-29T16:47:58.011Z,56.10
2019-04-29T16:49:23.780Z,56.20
2019-04-29T16:50:49.322Z,56.20
2019-04-29T16:52:15.835Z,56.20
2019-04-29T16:53:41.560Z,56.20
2019-04-29T16:55:07.366Z,56.30
2019-04-29T16:56:32.916Z,56.40
2019-04-29T16:57:59.694Z,56.40
2019-04-29T16:59:25.614Z,56.60
2019-04-29T17:00:52.780Z,56.80
2019-04-29T17:02:19.534Z,57.50
2019-04-29T17:03:45.582Z,57.60
2019-04-29T17:05:11.440Z,57.60
2019-04-29T17:06:41.609Z,57.60
2019-04-29T17:08:09.326Z,57.50
2019-04-29T17:09:50.681Z,57.70
2019-04-29T17:11:20.418Z,57.40
2019-04-29T17:12:49.490Z,57.40
2019-04-29T17:14:15.179Z,57.50
2019-04-29T17:15:44.613Z,57.30
2019-04-29T17:17:11.602Z,57.40
2019-04-29T17:18:37.124Z,57.60
2019-04-29T17:20:02.687Z,57.80
2019-04-29T17:21:28.104Z,57.60
2019-04-29T17:22:53.846Z,57.60
2019-04-29T17:24:20.352Z,57.70
2019-04-29T17:25:45.877Z,57.70
2019-04-29T17:27:45.704Z,57.70
2019-04-29T17:29:39.018Z,57.50
2019-04-29T17:31:26.684Z,56.80
2019-04-29T17:33:12.532Z,56.50
2019-04-29T17:34:58.150Z,55.50
2019-04-29T17:36:06.218Z,55.00
2019-04-29T17:37:32.194Z,53.10
2019-04-29T17:38:57.894Z,53.20
2019-04-29T17:40:24.126Z,53.50
2019-04-29T17:41:51.134Z,52.20
2019-04-29T17:43:44.661Z,51.80
2019-04-29T17:45:21.422Z,51.50
2019-04-29T17:47:03.200Z,51.40
2019-04-29T17:48:41.390Z,51.00
2019-04-29T17:50:29.464Z,51.60
2019-04-29T17:51:46.987Z,51.00
2019-04-29T17:53:21.689Z,51.00
2019-04-29T17:54:49.234Z,51.30
2019-04-29T17:56:38.503Z,51.20
2019-04-29T17:58:08.947Z,50.60
2019-04-29T17:59:45.859Z,50.70
2019-04-29T18:01:44.716Z,50.90
2019-04-29T18:03:41.246Z,51.10
2019-04-29T18:05:19.517Z,51.20
2019-04-29T18:07:08.362Z,51.20
2019-04-29T18:08:31.808Z,51.50
2019-04-29T18:10:02.352Z,51.60
2019-04-29T18:11:27.854Z,51.90
2019-04-29T18:12:58.981Z,52.30
2019-04-29T18:14:29.610Z,51.70
2019-04-29T18:16:01.497Z,51.30
2019-04-29T18:17:27.459Z,51.40
2019-04-29T18:19:18.351Z,51.50
2019-04-29T18:21:06.610Z,51.80
2019-04-29T18:22:51.478Z,51.60
2019-04-29T18:24:35.969Z,51.90
2019-04-29T18:26:20.041Z,51.90
2019-04-29T18:27:53.520Z,52.00
2019-04-29T18:29:22.013Z,52.30
2019-04-29T18:32:19.172Z,52.60
2019-04-29T18:33:45.130Z,52.60
2019-04-29T18:35:10.795Z,52.70
2019-04-29T18:36:36.511Z,52.80
2019-04-29T18:38:03.272Z,53.00
2019-04-29T18:39:31.488Z,53.20
2019-04-29T18:40:56.853Z,53.20
2019-04-29T18:42:22.333Z,53.50
2019-04-29T18:43:48.364Z,53.60
2019-04-29T18:45:15.668Z,53.70
2019-04-29T18:46:45.963Z,53.80
2019-04-29T18:48:14.388Z,54.10
2019-04-29T18:49:35.510Z,54.10
2019-04-29T18:51:00.944Z,54.40
2019-04-29T18:52:28.429Z,54.50
2019-04-29T18:53:55.490Z,54.60
2019-04-29T18:55:20.685Z,54.80
2019-04-29T18:56:46.304Z,55.20
2019-04-29T18:58:11.823Z,55.30
2019-04-29T18:59:37.281Z,56.30
2019-04-29T19:01:07.755Z,56.00
2019-04-29T19:02:45.058Z,56.30
2019-04-29T19:04:19.255Z,56.50
2019-04-29T19:05:51.024Z,56.80
2019-04-29T19:07:20.205Z,57.00
2019-04-29T19:08:45.016Z,57.80
2019-04-29T19:10:14.156Z,57.40
2019-04-29T19:11:46.427Z,57.70
2019-04-29T19:13:16.516Z,57.70
2019-04-29T19:14:37.351Z,58.10
2019-04-29T19:16:09.606Z,58.20
2019-04-29T19:17:30.730Z,58.20
2019-04-29T19:19:01.419Z,58.40